createdAt,value
2019-03-09T00:01:18.128Z,10.18
2019-03-09T00:03:46.758Z,11.48
2019-03-09T00:06:15.410Z,12.55
2019-03-09T00:08:43.913Z,11.03
2019-03-09T00:11:13.147Z,11.88
2019-03-09T00:13:41.736Z,9.98
2019-03-09T00:16:10.358Z,11.25
2019-03-09T00:18:38.947Z,14.47
2019-03-09T00:21:07.556Z,15.75
2019-03-09T00:23:37.715Z,12.18
2019-03-09T00:26:07.921Z,13.85
2019-03-09T00:28:37.992Z,15.88
2019-03-09T00:31:10.565Z,14.28
2019-03-09T00:33:39.142Z,6.97
2019-03-09T00:36:07.677Z,8.30
2019-03-09T00:38:36.231Z,9.38
2019-03-09T00:41:04.804Z,7.35
2019-03-09T00:43:35.019Z,9.05
2019-03-09T00:46:03.632Z,7.90
2019-03-09T00:48:32.732Z,10.48
2019-03-09T00:51:01.452Z,6.25
2019-03-09T00:53:30.041Z,7.85
2019-03-09T00:55:59.709Z,9.03
2019-03-09T00:58:28.383Z,8.85
2019-03-09T01:01:01.191Z,10.20
2019-03-09T01:03:29.889Z,8.90
2019-03-09T01:06:02.787Z,7.47
2019-03-09T01:08:31.437Z,7.80
2019-03-09T01:11:00.768Z,8.28
2019-03-09T01:13:29.289Z,8.63
2019-03-09T01:15:57.898Z,8.53
2019-03-09T01:18:26.531Z,6.53
2019-03-09T01:20:55.046Z,8.18
2019-03-09T01:23:25.917Z,4.80
2019-03-09T01:25:54.571Z,7.20
2019-03-09T01:28:23.100Z,4.92
2019-03-09T01:30:51.698Z,6.80
2019-03-09T01:33:21.026Z,7.70
2019-03-09T01:35:49.605Z,5.08
2019-03-09T01:38:18.200Z,7.08
2019-03-09T01:40:46.746Z,7.85
2019-03-09T01:43:15.398Z,7.60
2019-03-09T01:45:44.114Z,5.75
2019-03-09T01:48:12.671Z,4.90
2019-03-09T01:50:41.324Z,5.53
2019-03-09T01:53:09.827Z,5.35
2019-03-09T01:55:38.415Z,4.72
2019-03-09T01:58:07.066Z,5.05
2019-03-09T02:00:35.651Z,5.05
2019-03-09T02:03:04.324Z,6.03
2019-03-09T02:05:32.923Z,7.30
2019-03-09T02:08:01.506Z,5.78
2019-03-09T02:10:30.163Z,5.28
2019-03-09T02:12:58.672Z,3.85
2019-03-09T02:15:27.209Z,3.77
2019-03-09T02:17:55.811Z,4.95
2019-03-09T02:20:43.269Z,4.15
2019-03-09T02:23:12.008Z,4.25
2019-03-09T02:25:40.660Z,5.20
2019-03-09T02:28:09.296Z,3.62
2019-03-09T02:30:38.062Z,2.72
2019-03-09T02:33:06.737Z,3.70
2019-03-09T02:35:35.396Z,4.47
2019-03-09T02:38:05.944Z,2.55
2019-03-09T02:40:34.466Z,3.62
2019-03-09T02:43:03.586Z,7.28
2019-03-09T02:45:37.378Z,5.33
2019-03-09T02:48:06.144Z,5.80
2019-03-09T02:50:36.735Z,5.50
2019-03-09T02:53:06.618Z,3.47
2019-03-09T02:55:35.301Z,2.83
2019-03-09T02:58:04.923Z,3.52
2019-03-09T03:00:35.055Z,3.08
2019-03-09T03:03:07.945Z,3.58
2019-03-09T03:05:36.540Z,5.42
2019-03-09T03:08:05.155Z,3.87
2019-03-09T03:10:35.922Z,4.28
2019-03-09T03:13:06.241Z,4.10
2019-03-09T03:15:40.463Z,4.62
2019-03-09T03:18:09.105Z,5.78
2019-03-09T03:20:37.642Z,5.67
2019-03-09T03:23:07.227Z,5.25
2019-03-09T03:25:35.923Z,5.45
2019-03-09T03:28:04.505Z,6.08
2019-03-09T03:30:35.374Z,4.75
2019-03-09T03:33:03.925Z,4.70
2019-03-09T03:35:33.144Z,5.17
2019-03-09T03:38:01.748Z,7.28
2019-03-09T03:40:31.353Z,6.25
2019-03-09T03:42:59.806Z,5.28
2019-03-09T03:45:28.503Z,5.80
2019-03-09T03:47:57.219Z,6.67
2019-03-09T03:50:25.727Z,10.32
2019-03-09T03:52:55.281Z,8.70
2019-03-09T03:55:24.581Z,7.83
2019-03-09T03:57:53.267Z,6.47
2019-03-09T04:00:21.931Z,7.45
2019-03-09T04:02:50.563Z,8.58
2019-03-09T04:05:19.221Z,8.50
2019-03-09T04:07:48.544Z,8.30
2019-03-09T04:10:17.189Z,8.53
2019-03-09T04:12:46.118Z,9.38
2019-03-09T04:15:14.646Z,11.60
2019-03-09T04:17:43.298Z,12.13
2019-03-09T04:20:14.629Z,10.20
2019-03-09T04:22:43.149Z,14.25
2019-03-09T04:25:11.888Z,10.85
2019-03-09T04:27:40.331Z,10.20
2019-03-09T04:30:12.981Z,11.12
2019-03-09T04:32:41.657Z,14.60
2019-03-09T04:35:11.419Z,15.43
2019-03-09T04:37:40.002Z,11.12
2019-03-09T04:40:12.979Z,12.70
2019-03-09T04:42:41.573Z,11.73
2019-03-09T04:45:13.472Z,12.37
2019-03-09T04:47:42.744Z,10.25
2019-03-09T04:50:14.863Z,11.12
2019-03-09T04:52:43.392Z,11.55
2019-03-09T04:55:12.252Z,9.80
2019-03-09T04:57:40.995Z,11.60
2019-03-09T05:00:15.014Z,14.10
2019-03-09T05:02:44.629Z,11.93
2019-03-09T05:05:13.442Z,11.12
2019-03-09T05:07:49.093Z,16.70
2019-03-09T05:10:24.183Z,11.05
2019-03-09T05:12:57.668Z,14.50
2019-03-09T05:15:26.326Z,10.58
2019-03-09T05:17:54.852Z,13.88
2019-03-09T05:20:23.571Z,13.85
2019-03-09T05:22:52.666Z,9.93
2019-03-09T05:25:23.269Z,10.60
2019-03-09T05:27:51.872Z,9.28
2019-03-09T05:30:46.536Z,13.40
2019-03-09T05:33:15.055Z,11.43
2019-03-09T05:35:43.598Z,14.38
2019-03-09T05:38:12.196Z,11.28
2019-03-09T05:40:40.885Z,10.43
2019-03-09T05:43:09.396Z,10.75
2019-03-09T05:45:39.059Z,15.83
2019-03-09T05:48:07.634Z,12.80
2019-03-09T05:50:36.203Z,13.53
2019-03-09T05:53:23.014Z,11.35
2019-03-09T05:55:51.525Z,12.75
2019-03-09T05:58:20.626Z,12.05
2019-03-09T06:00:49.308Z,13.15
2019-03-09T06:03:20.163Z,11.78
2019-03-09T06:05:50.012Z,17.17
2019-03-09T06:08:18.716Z,9.18
2019-03-09T06:11:03.609Z,12.07
2019-03-09T06:13:33.217Z,15.98
2019-03-09T06:16:01.802Z,11.43
2019-03-09T06:18:30.260Z,13.90
2019-03-09T06:20:58.956Z,15.25
2019-03-09T06:23:27.423Z,15.03
2019-03-09T06:25:59.377Z,21.10
2019-03-09T06:28:28.024Z,12.05
2019-03-09T06:30:56.594Z,15.72
2019-03-09T06:33:29.694Z,14.38
2019-03-09T06:36:13.470Z,12.75
2019-03-09T06:41:29.169Z,17.37
2019-03-09T06:44:00.248Z,14.63
2019-03-09T06:46:28.920Z,12.55
2019-03-09T06:48:59.119Z,12.00
2019-03-09T06:54:15.472Z,17.85
2019-03-09T06:56:44.002Z,12.20
2019-03-09T06:59:12.524Z,13.43
2019-03-09T07:01:41.085Z,15.53
2019-03-09T07:04:09.599Z,17.67
2019-03-09T07:06:38.210Z,13.88
2019-03-09T07:09:06.936Z,12.75
2019-03-09T07:11:36.348Z,9.60
2019-03-09T07:14:39.464Z,18.82
2019-03-09T07:17:08.452Z,15.50
2019-03-09T07:19:37.606Z,15.95
2019-03-09T07:22:06.237Z,20.72
2019-03-09T07:24:34.820Z,16.77
2019-03-09T07:27:03.424Z,19.35
2019-03-09T07:29:32.086Z,14.68
2019-03-09T07:32:00.612Z,14.23
2019-03-09T07:34:29.773Z,19.15
2019-03-09T07:36:59.581Z,13.45
2019-03-09T07:39:28.259Z,22.75
2019-03-09T07:41:56.873Z,18.62
2019-03-09T07:44:33.930Z,18.73
2019-03-09T07:47:02.452Z,17.82
2019-03-09T07:49:35.241Z,21.37
2019-03-09T07:52:06.959Z,19.73
2019-03-09T07:54:35.508Z,21.37
2019-03-09T07:57:04.048Z,18.40
2019-03-09T07:59:32.667Z,18.27
2019-03-09T08:02:01.310Z,16.02
2019-03-09T08:04:29.931Z,14.23
2019-03-09T08:06:58.556Z,22.87
2019-03-09T08:09:27.235Z,17.45
2019-03-09T08:11:55.811Z,13.05
2019-03-09T08:14:24.393Z,16.35
2019-03-09T08:16:53.619Z,17.90
2019-03-09T08:19:22.517Z,15.32
2019-03-09T08:21:51.038Z,22.93
2019-03-09T08:24:19.607Z,25.55
2019-03-09T08:26:48.126Z,19.07
2019-03-09T08:29:16.829Z,22.85
2019-03-09T08:31:45.338Z,25.05
2019-03-09T08:34:13.906Z,26.75
2019-03-09T08:36:42.562Z,24.18
2019-03-09T08:39:12.724Z,21.70
2019-03-09T08:41:41.718Z,21.85
2019-03-09T08:44:10.453Z,22.75
2019-03-09T08:46:39.906Z,21.45
2019-03-09T08:49:08.789Z,20.37
2019-03-09T08:51:40.188Z,22.75
2019-03-09T08:54:12.944Z,23.87
2019-03-09T08:56:51.351Z,22.17
2019-03-09T08:59:24.829Z,23.87
2019-03-09T09:01:55.577Z,25.45
2019-03-09T09:04:24.552Z,18.00
2019-03-09T09:06:54.877Z,28.12
2019-03-09T09:09:31.249Z,23.92
2019-03-09T09:12:04.091Z,28.47
2019-03-09T09:14:34.892Z,17.60
2019-03-09T09:17:15.697Z,18.12
2019-03-09T09:19:36.995Z,23.90
2019-03-09T09:22:09.235Z,25.72
2019-03-09T09:24:45.949Z,29.52
2019-03-09T09:27:15.129Z,23.30
2019-03-09T09:29:48.129Z,21.15
2019-03-09T09:32:20.905Z,22.58
2019-03-09T09:34:51.493Z,25.85
2019-03-09T09:37:19.999Z,27.48
2019-03-09T09:39:48.640Z,27.58
2019-03-09T09:42:18.492Z,33.08
2019-03-09T09:44:50.884Z,25.43
2019-03-09T09:47:19.623Z,28.25
2019-03-09T09:49:48.144Z,23.75
2019-03-09T09:52:16.821Z,25.00
2019-03-09T09:57:49.821Z,24.18
2019-03-09T10:00:24.333Z,23.87
2019-03-09T10:02:57.814Z,21.68
2019-03-09T10:07:54.376Z,26.02
2019-03-09T10:10:23.656Z,23.02
2019-03-09T10:12:55.942Z,23.18
2019-03-09T10:15:29.550Z,29.27
2019-03-09T10:17:58.062Z,34.40
2019-03-09T10:20:30.570Z,19.12
2019-03-09T10:23:04.269Z,24.43
2019-03-09T10:25:31.036Z,21.07
2019-03-09T10:27:59.547Z,18.20
2019-03-09T10:30:28.278Z,24.57
2019-03-09T10:32:56.930Z,24.10
2019-03-09T10:35:25.517Z,28.00
2019-03-09T10:40:41.778Z,29.63
2019-03-09T10:43:10.484Z,24.18
2019-03-09T10:45:46.958Z,24.85
2019-03-09T10:48:16.037Z,15.45
2019-03-09T10:53:32.941Z,20.60
2019-03-09T10:56:01.613Z,24.07
2019-03-09T10:58:30.123Z,27.25
2019-03-09T11:00:59.612Z,29.92
2019-03-09T11:03:28.147Z,25.95
2019-03-09T11:05:57.344Z,27.67
2019-03-09T11:08:26.613Z,27.25
2019-03-09T11:10:55.602Z,26.35
2019-03-09T11:13:26.137Z,27.13
2019-03-09T11:15:54.815Z,30.43
2019-03-09T11:18:23.344Z,27.25
2019-03-09T11:20:52.924Z,27.77
2019-03-09T11:23:21.762Z,32.60
2019-03-09T11:25:50.348Z,19.92
2019-03-09T11:28:35.978Z,32.38
2019-03-09T11:31:04.572Z,33.05
2019-03-09T11:33:33.825Z,28.50
2019-03-09T11:36:02.292Z,29.37
2019-03-09T11:38:31.075Z,36.90
2019-03-09T11:41:00.873Z,33.33
2019-03-09T11:43:30.034Z,38.75
2019-03-09T11:46:09.371Z,36.10
2019-03-09T11:48:37.872Z,31.10
2019-03-09T11:51:06.389Z,33.33
2019-03-09T11:53:34.999Z,33.00
2019-03-09T11:56:03.580Z,37.83
2019-03-09T11:58:32.212Z,33.98
2019-03-09T12:01:00.948Z,33.02
2019-03-09T12:03:29.557Z,38.55
2019-03-09T12:05:58.212Z,35.20
2019-03-09T12:08:26.802Z,38.30
2019-03-09T12:10:55.301Z,41.60
2019-03-09T12:13:23.863Z,38.35
2019-03-09T12:15:52.300Z,38.95
2019-03-09T12:18:20.883Z,41.77
2019-03-09T12:20:49.709Z,40.95
2019-03-09T12:23:23.249Z,38.65
2019-03-09T12:25:51.831Z,43.73
2019-03-09T12:28:23.247Z,46.63
2019-03-09T12:30:51.809Z,37.83
2019-03-09T12:33:20.409Z,53.83
2019-03-09T12:35:48.963Z,45.08
2019-03-09T12:38:17.387Z,41.20
2019-03-09T12:40:46.004Z,42.10
2019-03-09T12:43:16.305Z,44.27
2019-03-09T12:45:44.881Z,35.35
2019-03-09T12:48:16.293Z,52.23
2019-03-09T12:50:48.184Z,37.75
2019-03-09T12:53:18.438Z,42.98
2019-03-09T12:55:50.361Z,51.65
2019-03-09T12:58:19.183Z,42.30
2019-03-09T13:00:47.876Z,40.78
2019-03-09T13:03:17.454Z,51.05
2019-03-09T13:05:46.892Z,37.85
2019-03-09T13:08:15.645Z,33.40
2019-03-09T13:10:44.233Z,35.60
2019-03-09T13:13:12.883Z,32.95
2019-03-09T13:15:42.044Z,39.73
2019-03-09T13:18:11.470Z,41.42
2019-03-09T13:20:40.405Z,37.63
2019-03-09T13:23:09.620Z,29.70
2019-03-09T13:25:38.859Z,32.33
2019-03-09T13:28:12.520Z,30.05
2019-03-09T13:30:41.253Z,33.15
2019-03-09T13:33:14.042Z,35.55
2019-03-09T13:35:42.623Z,24.20
2019-03-09T13:38:14.181Z,25.00
2019-03-09T13:40:45.789Z,24.32
2019-03-09T13:43:14.363Z,34.33
2019-03-09T13:45:44.624Z,33.92
2019-03-09T13:48:13.200Z,28.92
2019-03-09T13:50:41.835Z,24.65
2019-03-09T13:53:14.274Z,31.50
2019-03-09T13:55:42.937Z,24.57
2019-03-09T13:58:16.434Z,30.92
2019-03-09T14:00:48.224Z,29.52
2019-03-09T14:03:19.207Z,29.80
2019-03-09T14:05:58.494Z,24.35
2019-03-09T14:08:28.465Z,24.50
2019-03-09T14:10:56.936Z,24.55
2019-03-09T14:13:25.592Z,23.12
2019-03-09T14:15:55.805Z,23.67
2019-03-09T14:18:25.842Z,33.05
2019-03-09T14:21:02.216Z,25.90
2019-03-09T14:23:33.586Z,24.25
2019-03-09T14:26:02.107Z,28.55
2019-03-09T14:28:32.863Z,33.90
2019-03-09T14:31:01.649Z,20.17
2019-03-09T14:33:58.776Z,32.53
2019-03-09T14:36:33.085Z,25.00
2019-03-09T14:39:10.489Z,25.90
2019-03-09T14:41:39.152Z,22.75
2019-03-09T14:44:10.985Z,24.43
2019-03-09T14:46:43.304Z,23.57
2019-03-09T14:49:11.975Z,24.18
2019-03-09T14:51:47.971Z,21.55
2019-03-09T14:54:14.214Z,26.33
2019-03-09T14:56:44.667Z,25.77
2019-03-09T14:59:15.656Z,27.40
2019-03-09T15:01:44.365Z,23.02
2019-03-09T15:07:06.405Z,24.05
2019-03-09T15:09:34.995Z,28.52
2019-03-09T15:12:03.577Z,33.13
2019-03-09T15:14:32.264Z,30.43
2019-03-09T15:17:00.948Z,33.85
2019-03-09T15:19:29.622Z,28.75
2019-03-09T15:21:58.500Z,28.32
2019-03-09T15:24:27.012Z,28.80
2019-03-09T15:26:57.619Z,33.28
2019-03-09T15:29:26.325Z,29.75
2019-03-09T15:31:57.205Z,36.40
2019-03-09T15:34:26.461Z,28.75
2019-03-09T15:36:55.241Z,32.33
2019-03-09T15:39:24.344Z,42.27
2019-03-09T15:41:53.618Z,33.67
2019-03-09T15:44:22.692Z,37.05
2019-03-09T15:46:52.502Z,46.13
2019-03-09T15:49:23.893Z,40.05
2019-03-09T15:51:52.618Z,37.42
2019-03-09T15:54:25.560Z,33.50
2019-03-09T15:56:57.110Z,29.80
2019-03-09T15:59:25.920Z,34.63
2019-03-09T16:01:54.698Z,40.30
2019-03-09T16:04:23.604Z,35.17
2019-03-09T16:06:52.362Z,38.85
2019-03-09T16:09:21.067Z,39.40
2019-03-09T16:11:50.008Z,37.88
2019-03-09T16:14:20.832Z,33.05
2019-03-09T16:16:49.603Z,37.55
2019-03-09T16:19:20.815Z,35.58
2019-03-09T16:21:49.562Z,35.92
2019-03-09T16:24:18.257Z,34.53
2019-03-09T16:26:47.088Z,38.70
2019-03-09T16:29:15.630Z,37.83
2019-03-09T16:31:44.235Z,32.70
2019-03-09T16:34:13.026Z,43.05
2019-03-09T16:36:41.755Z,35.43
2019-03-09T16:39:13.475Z,33.35
2019-03-09T16:41:42.342Z,42.98
2019-03-09T16:44:11.002Z,35.15
2019-03-09T16:46:39.610Z,33.18
2019-03-09T16:49:08.344Z,36.00
2019-03-09T16:51:36.811Z,40.15
2019-03-09T16:54:06.467Z,41.45
2019-03-09T16:56:35.093Z,40.73
2019-03-09T16:59:03.620Z,36.68
2019-03-09T17:01:32.287Z,38.15
2019-03-09T17:04:01.021Z,42.35
2019-03-09T17:06:30.378Z,41.10
2019-03-09T17:08:59.032Z,33.75
2019-03-09T17:11:27.808Z,43.98
2019-03-09T17:13:57.293Z,45.95
2019-03-09T17:16:26.227Z,35.40
2019-03-09T17:18:55.539Z,46.10
2019-03-09T17:21:24.072Z,39.18
2019-03-09T17:23:52.673Z,37.67
2019-03-09T17:26:21.818Z,40.43
2019-03-09T17:28:51.135Z,44.42
2019-03-09T17:31:20.415Z,45.85
2019-03-09T17:33:52.473Z,36.95
2019-03-09T17:36:21.053Z,45.67
2019-03-09T17:38:49.627Z,52.40
2019-03-09T17:41:18.322Z,42.80
2019-03-09T17:43:47.019Z,43.78
2019-03-09T17:46:15.718Z,41.77
2019-03-09T17:48:44.512Z,46.68
2019-03-09T17:51:13.088Z,41.40
2019-03-09T17:53:41.687Z,39.83
2019-03-09T17:56:11.021Z,41.25
2019-03-09T17:58:39.723Z,48.70
2019-03-09T18:01:08.626Z,45.67
2019-03-09T18:03:37.494Z,39.70
2019-03-09T18:06:06.182Z,41.92
2019-03-09T18:08:34.864Z,40.78
2019-03-09T18:11:11.256Z,49.70
2019-03-09T18:13:39.953Z,40.43
2019-03-09T18:16:08.490Z,32.67
2019-03-09T18:18:37.118Z,49.60
2019-03-09T18:21:05.733Z,45.03
2019-03-09T18:23:34.448Z,37.60
2019-03-09T18:26:03.104Z,49.27
2019-03-09T18:28:31.858Z,52.35
2019-03-09T18:31:00.889Z,47.53
2019-03-09T18:33:29.447Z,50.40
2019-03-09T18:35:58.093Z,49.15
2019-03-09T18:38:26.886Z,46.53
2019-03-09T18:40:55.508Z,40.92
2019-03-09T18:43:24.053Z,43.63
2019-03-09T18:45:53.772Z,45.30
2019-03-09T18:48:22.478Z,41.53
2019-03-09T18:50:51.478Z,41.60
2019-03-09T18:53:19.972Z,40.05
2019-03-09T18:55:58.601Z,35.88
2019-03-09T18:58:18.976Z,40.48
2019-03-09T19:00:47.674Z,43.50
2019-03-09T19:03:16.355Z,40.83
2019-03-09T19:05:45.061Z,42.33
2019-03-09T19:08:13.862Z,36.53
2019-03-09T19:10:42.576Z,33.50
2019-03-09T19:13:11.184Z,40.67
2019-03-09T19:15:39.867Z,48.63
2019-03-09T19:18:08.577Z,42.10
2019-03-09T19:20:37.156Z,43.78
2019-03-09T19:23:05.786Z,46.88
2019-03-09T19:25:34.517Z,40.15
2019-03-09T19:28:03.062Z,44.13
2019-03-09T19:30:31.663Z,38.40
2019-03-09T19:33:00.869Z,44.03
2019-03-09T19:35:29.499Z,45.00
2019-03-09T19:37:58.109Z,46.48
2019-03-09T19:40:26.852Z,35.25
2019-03-09T19:42:55.437Z,45.73
2019-03-09T19:45:24.120Z,43.95
2019-03-09T19:47:53.790Z,41.58
2019-03-09T19:50:24.086Z,39.03
2019-03-09T19:52:52.749Z,40.35
2019-03-09T19:55:21.405Z,38.67
2019-03-09T19:57:50.017Z,48.55
2019-03-09T20:00:21.810Z,41.48
2019-03-09T20:02:50.562Z,30.95
2019-03-09T20:05:19.249Z,39.53
2019-03-09T20:07:47.868Z,43.45
2019-03-09T20:10:18.153Z,43.95
2019-03-09T20:12:47.697Z,47.27
2019-03-09T20:15:17.394Z,46.48
2019-03-09T20:17:46.141Z,42.73
2019-03-09T20:20:15.754Z,49.18
2019-03-09T20:22:44.459Z,43.55
2019-03-09T20:25:13.116Z,39.25
2019-03-09T20:27:41.674Z,41.23
2019-03-09T20:30:21.448Z,44.10
2019-03-09T20:32:50.125Z,42.83
2019-03-09T20:35:18.724Z,46.10
2019-03-09T20:37:47.274Z,41.75
2019-03-09T20:40:19.637Z,46.60
2019-03-09T20:42:48.312Z,41.68
2019-03-09T20:45:23.619Z,42.60
2019-03-09T20:47:52.278Z,54.25
2019-03-09T20:50:22.149Z,49.75
2019-03-09T20:52:50.865Z,36.77
2019-03-09T20:55:19.467Z,43.65
2019-03-09T20:57:47.988Z,43.15
2019-03-09T21:00:18.908Z,34.95
2019-03-09T21:02:47.620Z,41.65
2019-03-09T21:05:16.308Z,35.80
2019-03-09T21:07:45.033Z,36.10
2019-03-09T21:10:17.875Z,34.95
2019-03-09T21:13:05.812Z,45.65
2019-03-09T21:15:34.342Z,52.23
2019-03-09T21:18:02.984Z,42.27
2019-03-09T21:20:31.715Z,44.63
2019-03-09T21:23:00.397Z,47.40
2019-03-09T21:25:29.576Z,42.33
2019-03-09T21:27:58.224Z,30.82
2019-03-09T21:30:26.755Z,47.15
2019-03-09T21:32:55.320Z,41.23
2019-03-09T21:35:24.036Z,42.53
2019-03-09T21:37:53.123Z,41.68
2019-03-09T21:40:21.703Z,38.85
2019-03-09T21:42:50.415Z,39.45
2019-03-09T21:45:19.077Z,31.68
2019-03-09T21:47:47.672Z,31.87
2019-03-09T21:50:17.514Z,38.17
2019-03-09T21:52:46.010Z,34.88
2019-03-09T21:55:16.808Z,34.90
2019-03-09T21:57:45.399Z,40.30
2019-03-09T22:00:20.775Z,39.88
2019-03-09T22:02:50.491Z,40.00
2019-03-09T22:05:19.473Z,41.25
2019-03-09T22:07:48.063Z,40.12
2019-03-09T22:10:16.593Z,34.58
2019-03-09T22:12:45.114Z,42.20
2019-03-09T22:15:15.915Z,44.80
2019-03-09T22:17:44.479Z,37.10
2019-03-09T22:20:13.869Z,41.28
2019-03-09T22:22:42.509Z,43.87
2019-03-09T22:25:15.423Z,35.60
2019-03-09T22:27:43.966Z,41.42
2019-03-09T22:30:16.841Z,45.52
2019-03-09T22:32:45.498Z,45.10
2019-03-09T22:35:15.259Z,34.25
2019-03-09T22:37:43.779Z,33.75
2019-03-09T22:40:17.057Z,33.78
2019-03-09T22:42:45.680Z,45.33
2019-03-09T22:45:15.816Z,36.60
2019-03-09T22:47:44.331Z,28.12
2019-03-09T22:50:24.158Z,38.23
2019-03-09T22:52:52.739Z,37.60
2019-03-09T22:55:21.290Z,28.92
2019-03-09T22:57:49.911Z,38.80
2019-03-09T23:00:21.430Z,37.53
2019-03-09T23:02:49.919Z,37.20
2019-03-09T23:05:18.620Z,35.70
2019-03-09T23:07:47.142Z,44.38
2019-03-09T23:10:20.384Z,41.33
2019-03-09T23:12:48.909Z,44.00
2019-03-09T23:15:18.317Z,44.53
2019-03-09T23:17:46.799Z,39.00
2019-03-09T23:20:16.095Z,37.13
2019-03-09T23:22:44.782Z,43.50
2019-03-09T23:25:14.392Z,43.98
2019-03-09T23:27:42.926Z,39.10
2019-03-09T23:30:16.001Z,44.10
2019-03-09T23:32:44.539Z,44.03
2019-03-09T23:35:13.178Z,45.58
2019-03-09T23:37:42.862Z,44.73
2019-03-09T23:40:13.670Z,49.93
2019-03-09T23:42:42.205Z,38.13
2019-03-09T23:45:13.479Z,41.60
2019-03-09T23:47:42.446Z,36.63
2019-03-09T23:50:14.917Z,51.40
2019-03-09T23:52:43.389Z,33.05
2019-03-09T23:55:21.440Z,40.85
2019-03-09T23:57:42.249Z,42.35
